MDSD/SDQ METAR and TAF weather

Enter ICAO airport designator
Station Type Date Time Source
MDSD METAR 2021/06/22 23:00 UTC NOAA

MDSD 222300Z 00000KT 9999 FEW016CB BKN016 SCT300 26/25 Q1016 CB/E/W/NW


Station Type Date Time Source
MDSD Decoded METAR 2021/06/22 23:00 UTC NOAA

Las Americas, Dominican Republic (MDSD) 18-26N 069-40W
Jun 22, 2021 - 07:00 PM EDT / 2021.06.22 2300 UTC
Wind: Calm:0
Visibility: greater than 7 mile(s):0
Sky conditions: mostly cloudy
Weather: Cumulonimbus clouds observed
Temperature: 78 F (26 C)
Dew Point: 77 F (25 C)
Relative Humidity: 94%
Pressure (altimeter): 30.00 in. Hg (1016 hPa)
ob: MDSD 222300Z 00000KT 9999 FEW016CB BKN016 SCT300 26/25 Q1016 CB/E/W/NW
cycle: 23

Station Type Date Time Source
MDSD TAF 2021/06/22 18:17 UTC NOAA

TAF MDSD 221600Z 2218/2318 14008KT 9999 FEW016CB SCT018 SCT080 BKN300 PROB30 2218/2300 7000 -TSRA FEW014CB BKN016 BKN070

Example: see airport list